sensor_id;sensor_type;location;lat;lon;timestamp;P1;durP1;ratioP1;P2;durP2;ratioP2
23266;SDS011;11802;53.160;8.214;2023-08-06T00:01:43;12.10;;;8.93;;
23266;SDS011;11802;53.160;8.214;2023-08-06T00:04:09;12.53;;;9.03;;
23266;SDS011;11802;53.160;8.214;2023-08-06T00:06:34;14.33;;;9.03;;
23266;SDS011;11802;53.160;8.214;2023-08-06T00:09:00;11.87;;;9.13;;
23266;SDS011;11802;53.160;8.214;2023-08-06T00:11:25;12.93;;;8.67;;
23266;SDS011;11802;53.160;8.214;2023-08-06T00:13:51;11.07;;;8.13;;
23266;SDS011;11802;53.160;8.214;2023-08-06T00:16:16;13.60;;;8.50;;
23266;SDS011;11802;53.160;8.214;2023-08-06T00:18:42;10.57;;;7.63;;
23266;SDS011;11802;53.160;8.214;2023-08-06T00:21:07;8.90;;;7.77;;
23266;SDS011;11802;53.160;8.214;2023-08-06T00:23:33;9.77;;;7.33;;
23266;SDS011;11802;53.160;8.214;2023-08-06T00:25:58;11.10;;;7.43;;
23266;SDS011;11802;53.160;8.214;2023-08-06T00:28:24;9.13;;;7.97;;
23266;SDS011;11802;53.160;8.214;2023-08-06T00:30:53;11.43;;;7.60;;
23266;SDS011;11802;53.160;8.214;2023-08-06T00:33:22;11.27;;;7.70;;
23266;SDS011;11802;53.160;8.214;2023-08-06T00:35:48;13.17;;;6.87;;
23266;SDS011;11802;53.160;8.214;2023-08-06T00:38:14;9.60;;;6.90;;
23266;SDS011;11802;53.160;8.214;2023-08-06T00:40:39;9.33;;;7.03;;
23266;SDS011;11802;53.160;8.214;2023-08-06T00:43:05;10.33;;;6.43;;
23266;SDS011;11802;53.160;8.214;2023-08-06T00:45:30;12.03;;;6.43;;
23266;SDS011;11802;53.160;8.214;2023-08-06T00:48:00;7.83;;;5.13;;
23266;SDS011;11802;53.160;8.214;2023-08-06T00:50:26;9.43;;;6.17;;
23266;SDS011;11802;53.160;8.214;2023-08-06T00:52:52;9.73;;;5.50;;
23266;SDS011;11802;53.160;8.214;2023-08-06T00:55:19;7.17;;;5.37;;
23266;SDS011;11802;53.160;8.214;2023-08-06T00:57:45;7.43;;;5.73;;
23266;SDS011;11802;53.160;8.214;2023-08-06T01:00:10;10.40;;;5.60;;
23266;SDS011;11802;53.160;8.214;2023-08-06T01:02:37;7.23;;;5.57;;
23266;SDS011;11802;53.160;8.214;2023-08-06T01:05:03;8.10;;;5.53;;
23266;SDS011;11802;53.160;8.214;2023-08-06T01:13:42;7.63;;;5.77;;
23266;SDS011;11802;53.160;8.214;2023-08-06T01:16:15;8.37;;;6.10;;
23266;SDS011;11802;53.160;8.214;2023-08-06T01:18:42;10.57;;;5.80;;
23266;SDS011;11802;53.160;8.214;2023-08-06T01:21:12;8.57;;;6.37;;
23266;SDS011;11802;53.160;8.214;2023-08-06T01:23:38;9.90;;;6.73;;
23266;SDS011;11802;53.160;8.214;2023-08-06T01:31:27;9.00;;;6.97;;
23266;SDS011;11802;53.160;8.214;2023-08-06T01:33:56;9.40;;;6.73;;
23266;SDS011;11802;53.160;8.214;2023-08-06T01:36:23;9.50;;;7.20;;
23266;SDS011;11802;53.160;8.214;2023-08-06T01:38:51;9.27;;;7.83;;
23266;SDS011;11802;53.160;8.214;2023-08-06T01:41:17;9.90;;;7.87;;
23266;SDS011;11802;53.160;8.214;2023-08-06T01:43:42;9.80;;;7.80;;
23266;SDS011;11802;53.160;8.214;2023-08-06T01:46:08;9.87;;;7.57;;
23266;SDS011;11802;53.160;8.214;2023-08-06T01:48:33;10.77;;;7.67;;
23266;SDS011;11802;53.160;8.214;2023-08-06T01:50:59;10.50;;;8.30;;
23266;SDS011;11802;53.160;8.214;2023-08-06T01:53:24;12.53;;;8.87;;
23266;SDS011;11802;53.160;8.214;2023-08-06T01:55:50;11.67;;;8.30;;
23266;SDS011;11802;53.160;8.214;2023-08-06T01:58:15;11.77;;;8.57;;
23266;SDS011;11802;53.160;8.214;2023-08-06T02:00:41;12.90;;;9.13;;
23266;SDS011;11802;53.160;8.214;2023-08-06T02:03:07;12.23;;;8.53;;
23266;SDS011;11802;53.160;8.214;2023-08-06T02:05:32;14.00;;;9.20;;
23266;SDS011;11802;53.160;8.214;2023-08-06T02:07:58;15.37;;;8.70;;
23266;SDS011;11802;53.160;8.214;2023-08-06T02:10:23;12.53;;;8.73;;
23266;SDS011;11802;53.160;8.214;2023-08-06T02:12:49;13.30;;;8.70;;
23266;SDS011;11802;53.160;8.214;2023-08-06T02:15:14;12.83;;;9.10;;
23266;SDS011;11802;53.160;8.214;2023-08-06T02:17:40;15.30;;;9.47;;
23266;SDS011;11802;53.160;8.214;2023-08-06T02:20:05;12.27;;;9.13;;
23266;SDS011;11802;53.160;8.214;2023-08-06T02:22:31;12.70;;;8.67;;
23266;SDS011;11802;53.160;8.214;2023-08-06T02:24:58;11.50;;;8.33;;
23266;SDS011;11802;53.160;8.214;2023-08-06T02:27:23;13.93;;;8.13;;
23266;SDS011;11802;53.160;8.214;2023-08-06T02:29:49;12.80;;;8.37;;
23266;SDS011;11802;53.160;8.214;2023-08-06T02:32:14;11.37;;;8.77;;
23266;SDS011;11802;53.160;8.214;2023-08-06T02:34:40;12.37;;;8.47;;
23266;SDS011;11802;53.160;8.214;2023-08-06T02:37:05;11.27;;;8.10;;
23266;SDS011;11802;53.160;8.214;2023-08-06T02:39:31;8.80;;;7.20;;
23266;SDS011;11802;53.160;8.214;2023-08-06T02:41:58;10.27;;;7.33;;
23266;SDS011;11802;53.160;8.214;2023-08-06T02:44:26;10.20;;;7.57;;
23266;SDS011;11802;53.160;8.214;2023-08-06T02:46:52;9.70;;;8.00;;
23266;SDS011;11802;53.160;8.214;2023-08-06T02:49:18;13.70;;;8.27;;
23266;SDS011;11802;53.160;8.214;2023-08-06T02:51:46;12.23;;;9.10;;
23266;SDS011;11802;53.160;8.214;2023-08-06T02:54:12;12.77;;;9.47;;
23266;SDS011;11802;53.160;8.214;2023-08-06T02:56:37;13.40;;;9.73;;
23266;SDS011;11802;53.160;8.214;2023-08-06T02:59:03;13.73;;;9.27;;
23266;SDS011;11802;53.160;8.214;2023-08-06T03:01:29;11.57;;;8.67;;
23266;SDS011;11802;53.160;8.214;2023-08-06T03:03:54;10.37;;;8.37;;
23266;SDS011;11802;53.160;8.214;2023-08-06T03:06:20;13.73;;;8.50;;
23266;SDS011;11802;53.160;8.214;2023-08-06T03:08:45;12.17;;;8.43;;
23266;SDS011;11802;53.160;8.214;2023-08-06T03:11:11;10.37;;;7.57;;
23266;SDS011;11802;53.160;8.214;2023-08-06T03:13:36;13.47;;;7.30;;
23266;SDS011;11802;53.160;8.214;2023-08-06T03:16:02;8.87;;;6.80;;
23266;SDS011;11802;53.160;8.214;2023-08-06T03:18:28;11.17;;;7.80;;
23266;SDS011;11802;53.160;8.214;2023-08-06T03:20:53;10.20;;;7.00;;
23266;SDS011;11802;53.160;8.214;2023-08-06T03:23:19;10.17;;;7.70;;
23266;SDS011;11802;53.160;8.214;2023-08-06T03:25:45;11.30;;;7.10;;
23266;SDS011;11802;53.160;8.214;2023-08-06T03:28:10;8.57;;;6.73;;
23266;SDS011;11802;53.160;8.214;2023-08-06T03:30:36;9.93;;;6.97;;
23266;SDS011;11802;53.160;8.214;2023-08-06T03:33:01;11.60;;;7.10;;
23266;SDS011;11802;53.160;8.214;2023-08-06T03:35:27;8.90;;;6.40;;
23266;SDS011;11802;53.160;8.214;2023-08-06T03:37:52;11.53;;;7.37;;
23266;SDS011;11802;53.160;8.214;2023-08-06T03:40:18;12.30;;;6.53;;
23266;SDS011;11802;53.160;8.214;2023-08-06T03:42:43;9.03;;;6.40;;
23266;SDS011;11802;53.160;8.214;2023-08-06T03:45:09;9.70;;;7.00;;
23266;SDS011;11802;53.160;8.214;2023-08-06T03:47:35;9.93;;;6.73;;
23266;SDS011;11802;53.160;8.214;2023-08-06T03:50:00;11.97;;;7.40;;
23266;SDS011;11802;53.160;8.214;2023-08-06T03:52:26;10.47;;;7.27;;
23266;SDS011;11802;53.160;8.214;2023-08-06T03:54:51;11.63;;;7.37;;
23266;SDS011;11802;53.160;8.214;2023-08-06T03:57:17;10.63;;;7.37;;
23266;SDS011;11802;53.160;8.214;2023-08-06T03:59:42;11.20;;;7.00;;
23266;SDS011;11802;53.160;8.214;2023-08-06T04:02:08;10.07;;;7.80;;
23266;SDS011;11802;53.160;8.214;2023-08-06T04:04:33;10.17;;;7.20;;
23266;SDS011;11802;53.160;8.214;2023-08-06T04:06:59;11.43;;;7.37;;
23266;SDS011;11802;53.160;8.214;2023-08-06T04:09:25;10.93;;;7.67;;
23266;SDS011;11802;53.160;8.214;2023-08-06T04:11:53;11.07;;;7.70;;
23266;SDS011;11802;53.160;8.214;2023-08-06T04:14:18;11.83;;;7.73;;
23266;SDS011;11802;53.160;8.214;2023-08-06T04:16:44;10.90;;;8.07;;
23266;SDS011;11802;53.160;8.214;2023-08-06T04:19:09;11.47;;;8.47;;
23266;SDS011;11802;53.160;8.214;2023-08-06T04:21:35;9.33;;;7.63;;
23266;SDS011;11802;53.160;8.214;2023-08-06T04:24:00;10.83;;;8.20;;
23266;SDS011;11802;53.160;8.214;2023-08-06T04:26:26;12.43;;;7.67;;
23266;SDS011;11802;53.160;8.214;2023-08-06T04:28:52;10.03;;;7.60;;
23266;SDS011;11802;53.160;8.214;2023-08-06T04:31:17;9.50;;;7.50;;
23266;SDS011;11802;53.160;8.214;2023-08-06T04:33:43;11.60;;;7.63;;
23266;SDS011;11802;53.160;8.214;2023-08-06T04:36:08;12.67;;;8.43;;
23266;SDS011;11802;53.160;8.214;2023-08-06T04:38:34;9.23;;;7.20;;
23266;SDS011;11802;53.160;8.214;2023-08-06T04:41:01;10.33;;;8.23;;
23266;SDS011;11802;53.160;8.214;2023-08-06T04:43:27;12.67;;;7.80;;
23266;SDS011;11802;53.160;8.214;2023-08-06T04:45:54;12.10;;;7.23;;
23266;SDS011;11802;53.160;8.214;2023-08-06T04:48:20;11.00;;;7.60;;
23266;SDS011;11802;53.160;8.214;2023-08-06T04:50:47;11.10;;;7.40;;
23266;SDS011;11802;53.160;8.214;2023-08-06T04:53:13;9.57;;;6.90;;
23266;SDS011;11802;53.160;8.214;2023-08-06T04:55:39;9.80;;;7.40;;
23266;SDS011;11802;53.160;8.214;2023-08-06T04:58:05;10.03;;;7.73;;
23266;SDS011;11802;53.160;8.214;2023-08-06T05:00:31;11.23;;;8.17;;
23266;SDS011;11802;53.160;8.214;2023-08-06T05:02:56;12.43;;;8.17;;
23266;SDS011;11802;53.160;8.214;2023-08-06T05:05:24;11.00;;;8.43;;
23266;SDS011;11802;53.160;8.214;2023-08-06T05:07:49;14.33;;;8.03;;
23266;SDS011;11802;53.160;8.214;2023-08-06T05:10:15;12.90;;;8.87;;
23266;SDS011;11802;53.160;8.214;2023-08-06T05:12:41;18.10;;;9.03;;
23266;SDS011;11802;53.160;8.214;2023-08-06T05:15:07;14.20;;;9.60;;
23266;SDS011;11802;53.160;8.214;2023-08-06T05:17:33;14.40;;;10.10;;
23266;SDS011;11802;53.160;8.214;2023-08-06T05:19:59;14.10;;;9.70;;
23266;SDS011;11802;53.160;8.214;2023-08-06T05:22:24;15.37;;;10.07;;
23266;SDS011;11802;53.160;8.214;2023-08-06T05:24:50;15.47;;;10.67;;
23266;SDS011;11802;53.160;8.214;2023-08-06T05:27:15;18.13;;;9.87;;
23266;SDS011;11802;53.160;8.214;2023-08-06T05:29:43;14.10;;;10.97;;
23266;SDS011;11802;53.160;8.214;2023-08-06T05:32:09;17.90;;;12.27;;
23266;SDS011;11802;53.160;8.214;2023-08-06T05:34:35;17.17;;;11.40;;
23266;SDS011;11802;53.160;8.214;2023-08-06T05:37:00;15.57;;;11.60;;
23266;SDS011;11802;53.160;8.214;2023-08-06T05:39:26;16.83;;;12.77;;
23266;SDS011;11802;53.160;8.214;2023-08-06T05:41:51;20.57;;;14.07;;
23266;SDS011;11802;53.160;8.214;2023-08-06T05:44:17;19.43;;;14.07;;
23266;SDS011;11802;53.160;8.214;2023-08-06T05:46:43;18.67;;;14.47;;
23266;SDS011;11802;53.160;8.214;2023-08-06T05:49:08;19.63;;;15.10;;
23266;SDS011;11802;53.160;8.214;2023-08-06T05:51:34;21.10;;;15.73;;
23266;SDS011;11802;53.160;8.214;2023-08-06T05:53:59;22.70;;;16.67;;
23266;SDS011;11802;53.160;8.214;2023-08-06T05:56:25;21.50;;;16.03;;
23266;SDS011;11802;53.160;8.214;2023-08-06T05:58:50;22.50;;;16.67;;
23266;SDS011;11802;53.160;8.214;2023-08-06T06:01:18;20.97;;;15.87;;
23266;SDS011;11802;53.160;8.214;2023-08-06T06:03:43;22.47;;;17.43;;
23266;SDS011;11802;53.160;8.214;2023-08-06T06:06:09;22.77;;;17.07;;
23266;SDS011;11802;53.160;8.214;2023-08-06T06:08:34;22.73;;;16.90;;
23266;SDS011;11802;53.160;8.214;2023-08-06T06:11:00;19.40;;;15.23;;
23266;SDS011;11802;53.160;8.214;2023-08-06T06:13:25;23.87;;;17.27;;
23266;SDS011;11802;53.160;8.214;2023-08-06T06:15:53;21.03;;;15.77;;
23266;SDS011;11802;53.160;8.214;2023-08-06T06:18:20;19.57;;;15.07;;
23266;SDS011;11802;53.160;8.214;2023-08-06T06:20:45;20.93;;;15.37;;
23266;SDS011;11802;53.160;8.214;2023-08-06T06:23:11;20.13;;;15.25;;
23266;SDS011;11802;53.160;8.214;2023-08-06T06:25:36;22.73;;;15.50;;
23266;SDS011;11802;53.160;8.214;2023-08-06T06:28:06;17.77;;;13.80;;
23266;SDS011;11802;53.160;8.214;2023-08-06T06:30:32;17.75;;;14.82;;
23266;SDS011;11802;53.160;8.214;2023-08-06T06:32:57;17.23;;;14.00;;
23266;SDS011;11802;53.160;8.214;2023-08-06T06:35:23;17.85;;;13.98;;
23266;SDS011;11802;53.160;8.214;2023-08-06T06:37:48;17.83;;;13.35;;
23266;SDS011;11802;53.160;8.214;2023-08-06T06:40:14;15.48;;;12.95;;
23266;SDS011;11802;53.160;8.214;2023-08-06T06:42:40;15.73;;;13.00;;
23266;SDS011;11802;53.160;8.214;2023-08-06T06:45:05;15.80;;;12.77;;
23266;SDS011;11802;53.160;8.214;2023-08-06T06:47:31;15.18;;;12.43;;
23266;SDS011;11802;53.160;8.214;2023-08-06T06:49:57;15.90;;;12.98;;
23266;SDS011;11802;53.160;8.214;2023-08-06T06:52:22;15.20;;;11.10;;
23266;SDS011;11802;53.160;8.214;2023-08-06T06:54:48;14.68;;;11.80;;
23266;SDS011;11802;53.160;8.214;2023-08-06T06:57:13;15.68;;;13.18;;
23266;SDS011;11802;53.160;8.214;2023-08-06T06:59:39;17.45;;;13.68;;
23266;SDS011;11802;53.160;8.214;2023-08-06T07:02:05;15.68;;;13.73;;
23266;SDS011;11802;53.160;8.214;2023-08-06T07:04:30;15.10;;;11.68;;
23266;SDS011;11802;53.160;8.214;2023-08-06T07:06:56;13.43;;;10.80;;
23266;SDS011;11802;53.160;8.214;2023-08-06T07:09:21;16.33;;;12.52;;
23266;SDS011;11802;53.160;8.214;2023-08-06T07:11:47;14.23;;;12.73;;
23266;SDS011;11802;53.160;8.214;2023-08-06T07:14:13;16.98;;;13.52;;
23266;SDS011;11802;53.160;8.214;2023-08-06T07:16:39;16.92;;;13.85;;
23266;SDS011;11802;53.160;8.214;2023-08-06T07:19:05;15.23;;;13.55;;
23266;SDS011;11802;53.160;8.214;2023-08-06T07:21:30;11.93;;;10.48;;
23266;SDS011;11802;53.160;8.214;2023-08-06T07:23:57;13.82;;;9.88;;
23266;SDS011;11802;53.160;8.214;2023-08-06T07:26:24;14.60;;;10.98;;
23266;SDS011;11802;53.160;8.214;2023-08-06T07:28:49;13.13;;;11.27;;
23266;SDS011;11802;53.160;8.214;2023-08-06T07:31:15;13.95;;;11.73;;
23266;SDS011;11802;53.160;8.214;2023-08-06T07:33:41;14.32;;;12.05;;
23266;SDS011;11802;53.160;8.214;2023-08-06T07:36:10;14.65;;;11.77;;
23266;SDS011;11802;53.160;8.214;2023-08-06T07:38:37;15.65;;;12.77;;
23266;SDS011;11802;53.160;8.214;2023-08-06T07:41:03;14.27;;;12.82;;
23266;SDS011;11802;53.160;8.214;2023-08-06T07:43:29;11.38;;;9.60;;
23266;SDS011;11802;53.160;8.214;2023-08-06T07:45:57;12.68;;;9.18;;
23266;SDS011;11802;53.160;8.214;2023-08-06T07:48:27;12.65;;;9.40;;
23266;SDS011;11802;53.160;8.214;2023-08-06T07:50:56;12.45;;;9.73;;
23266;SDS011;11802;53.160;8.214;2023-08-06T07:53:22;12.30;;;9.43;;
23266;SDS011;11802;53.160;8.214;2023-08-06T07:55:52;13.70;;;8.50;;
23266;SDS011;11802;53.160;8.214;2023-08-06T07:58:18;8.98;;;6.97;;
23266;SDS011;11802;53.160;8.214;2023-08-06T08:00:45;12.50;;;6.78;;
23266;SDS011;11802;53.160;8.214;2023-08-06T08:03:12;9.88;;;7.07;;
23266;SDS011;11802;53.160;8.214;2023-08-06T08:05:39;8.80;;;6.70;;
23266;SDS011;11802;53.160;8.214;2023-08-06T08:08:05;8.77;;;6.30;;
23266;SDS011;11802;53.160;8.214;2023-08-06T08:10:31;9.65;;;6.93;;
23266;SDS011;11802;53.160;8.214;2023-08-06T08:12:57;13.15;;;9.85;;
23266;SDS011;11802;53.160;8.214;2023-08-06T08:15:24;13.05;;;8.82;;
23266;SDS011;11802;53.160;8.214;2023-08-06T08:17:51;10.52;;;8.85;;
23266;SDS011;11802;53.160;8.214;2023-08-06T08:20:17;10.57;;;8.13;;
23266;SDS011;11802;53.160;8.214;2023-08-06T08:22:43;9.82;;;7.63;;
23266;SDS011;11802;53.160;8.214;2023-08-06T08:25:08;10.07;;;6.78;;
23266;SDS011;11802;53.160;8.214;2023-08-06T08:27:34;11.82;;;7.78;;
23266;SDS011;11802;53.160;8.214;2023-08-06T08:29:59;9.15;;;7.72;;
23266;SDS011;11802;53.160;8.214;2023-08-06T08:32:25;10.68;;;7.90;;
23266;SDS011;11802;53.160;8.214;2023-08-06T08:34:52;10.10;;;8.20;;
23266;SDS011;11802;53.160;8.214;2023-08-06T08:37:17;10.35;;;8.68;;
23266;SDS011;11802;53.160;8.214;2023-08-06T08:39:43;9.18;;;7.85;;
23266;SDS011;11802;53.160;8.214;2023-08-06T08:42:09;10.15;;;8.77;;
23266;SDS011;11802;53.160;8.214;2023-08-06T08:44:35;9.65;;;7.55;;
23266;SDS011;11802;53.160;8.214;2023-08-06T08:47:05;10.43;;;8.07;;
23266;SDS011;11802;53.160;8.214;2023-08-06T08:49:31;9.32;;;7.65;;
23266;SDS011;11802;53.160;8.214;2023-08-06T08:51:57;11.80;;;8.38;;
23266;SDS011;11802;53.160;8.214;2023-08-06T08:54:26;8.90;;;8.00;;
23266;SDS011;11802;53.160;8.214;2023-08-06T08:56:53;9.73;;;8.73;;
23266;SDS011;11802;53.160;8.214;2023-08-06T08:59:20;9.90;;;7.88;;
23266;SDS011;11802;53.160;8.214;2023-08-06T09:01:45;8.65;;;7.47;;
23266;SDS011;11802;53.160;8.214;2023-08-06T09:04:16;10.80;;;6.70;;
23266;SDS011;11802;53.160;8.214;2023-08-06T09:06:42;7.65;;;6.80;;
23266;SDS011;11802;53.160;8.214;2023-08-06T09:09:15;9.68;;;7.38;;
23266;SDS011;11802;53.160;8.214;2023-08-06T09:11:50;8.68;;;7.00;;
23266;SDS011;11802;53.160;8.214;2023-08-06T09:14:16;6.78;;;6.07;;
23266;SDS011;11802;53.160;8.214;2023-08-06T09:16:43;8.30;;;6.50;;
23266;SDS011;11802;53.160;8.214;2023-08-06T09:19:11;6.50;;;5.65;;
23266;SDS011;11802;53.160;8.214;2023-08-06T09:21:38;8.02;;;6.40;;
23266;SDS011;11802;53.160;8.214;2023-08-06T09:24:08;7.15;;;6.45;;
23266;SDS011;11802;53.160;8.214;2023-08-06T09:26:36;6.75;;;6.03;;
23266;SDS011;11802;53.160;8.214;2023-08-06T09:29:05;6.30;;;5.70;;
23266;SDS011;11802;53.160;8.214;2023-08-06T09:31:42;6.05;;;4.95;;
23266;SDS011;11802;53.160;8.214;2023-08-06T09:36:48;5.60;;;5.00;;
23266;SDS011;11802;53.160;8.214;2023-08-06T09:39:19;4.82;;;4.28;;
23266;SDS011;11802;53.160;8.214;2023-08-06T09:41:46;6.05;;;3.70;;
23266;SDS011;11802;53.160;8.214;2023-08-06T09:44:18;4.75;;;3.90;;
23266;SDS011;11802;53.160;8.214;2023-08-06T09:46:50;4.03;;;3.38;;
23266;SDS011;11802;53.160;8.214;2023-08-06T09:49:26;4.72;;;4.22;;
23266;SDS011;11802;53.160;8.214;2023-08-06T09:51:57;4.90;;;4.32;;
23266;SDS011;11802;53.160;8.214;2023-08-06T09:54:25;7.38;;;3.95;;
23266;SDS011;11802;53.160;8.214;2023-08-06T09:56:52;7.25;;;4.72;;
23266;SDS011;11802;53.160;8.214;2023-08-06T09:59:19;7.35;;;5.55;;
23266;SDS011;11802;53.160;8.214;2023-08-06T10:01:45;6.80;;;5.63;;
23266;SDS011;11802;53.160;8.214;2023-08-06T10:04:11;6.55;;;5.85;;
23266;SDS011;11802;53.160;8.214;2023-08-06T10:06:40;7.25;;;5.72;;
23266;SDS011;11802;53.160;8.214;2023-08-06T10:09:07;7.68;;;5.90;;
23266;SDS011;11802;53.160;8.214;2023-08-06T10:11:34;7.22;;;6.53;;
23266;SDS011;11802;53.160;8.214;2023-08-06T10:14:11;6.13;;;5.53;;
23266;SDS011;11802;53.160;8.214;2023-08-06T10:16:41;6.25;;;5.65;;
23266;SDS011;11802;53.160;8.214;2023-08-06T10:19:07;7.00;;;6.30;;
23266;SDS011;11802;53.160;8.214;2023-08-06T10:21:37;6.20;;;5.13;;
23266;SDS011;11802;53.160;8.214;2023-08-06T10:24:03;5.78;;;4.13;;
23266;SDS011;11802;53.160;8.214;2023-08-06T10:26:35;4.90;;;4.20;;
23266;SDS011;11802;53.160;8.214;2023-08-06T10:29:01;4.88;;;4.38;;
23266;SDS011;11802;53.160;8.214;2023-08-06T10:34:19;5.60;;;4.57;;
23266;SDS011;11802;53.160;8.214;2023-08-06T10:36:44;5.53;;;4.43;;
23266;SDS011;11802;53.160;8.214;2023-08-06T10:39:13;3.70;;;2.90;;
23266;SDS011;11802;53.160;8.214;2023-08-06T10:41:39;3.30;;;2.40;;
23266;SDS011;11802;53.160;8.214;2023-08-06T10:44:10;2.78;;;2.42;;
23266;SDS011;11802;53.160;8.214;2023-08-06T10:46:36;3.42;;;2.10;;
23266;SDS011;11802;53.160;8.214;2023-08-06T10:49:03;2.60;;;1.90;;
23266;SDS011;11802;53.160;8.214;2023-08-06T10:51:29;2.38;;;1.65;;
23266;SDS011;11802;53.160;8.214;2023-08-06T10:53:55;1.90;;;1.70;;
23266;SDS011;11802;53.160;8.214;2023-08-06T10:56:23;2.55;;;1.30;;
23266;SDS011;11802;53.160;8.214;2023-08-06T10:58:55;2.83;;;1.60;;
23266;SDS011;11802;53.160;8.214;2023-08-06T11:01:22;1.63;;;1.27;;
23266;SDS011;11802;53.160;8.214;2023-08-06T11:03:49;4.38;;;1.50;;
23266;SDS011;11802;53.160;8.214;2023-08-06T11:06:19;2.15;;;1.40;;
23266;SDS011;11802;53.160;8.214;2023-08-06T11:08:52;2.70;;;1.00;;
23266;SDS011;11802;53.160;8.214;2023-08-06T11:11:19;1.75;;;1.20;;
23266;SDS011;11802;53.160;8.214;2023-08-06T11:13:48;2.10;;;1.30;;
23266;SDS011;11802;53.160;8.214;2023-08-06T11:16:18;1.63;;;1.23;;
23266;SDS011;11802;53.160;8.214;2023-08-06T11:18:46;1.77;;;1.50;;
23266;SDS011;11802;53.160;8.214;2023-08-06T11:21:12;1.70;;;1.60;;
23266;SDS011;11802;53.160;8.214;2023-08-06T11:23:38;3.13;;;1.80;;
23266;SDS011;11802;53.160;8.214;2023-08-06T11:26:05;2.70;;;1.95;;
23266;SDS011;11802;53.160;8.214;2023-08-06T11:28:30;3.15;;;2.03;;
23266;SDS011;11802;53.160;8.214;2023-08-06T11:30:56;2.95;;;2.00;;
23266;SDS011;11802;53.160;8.214;2023-08-06T11:33:26;2.33;;;1.80;;
23266;SDS011;11802;53.160;8.214;2023-08-06T11:35:52;2.47;;;1.67;;
23266;SDS011;11802;53.160;8.214;2023-08-06T11:38:21;3.72;;;2.10;;
23266;SDS011;11802;53.160;8.214;2023-08-06T11:40:50;2.60;;;1.80;;
23266;SDS011;11802;53.160;8.214;2023-08-06T11:43:15;4.43;;;1.70;;
23266;SDS011;11802;53.160;8.214;2023-08-06T11:45:42;2.63;;;1.70;;
23266;SDS011;11802;53.160;8.214;2023-08-06T11:48:08;4.03;;;1.83;;
23266;SDS011;11802;53.160;8.214;2023-08-06T11:50:36;2.50;;;1.73;;
23266;SDS011;11802;53.160;8.214;2023-08-06T11:53:05;2.67;;;1.75;;
23266;SDS011;11802;53.160;8.214;2023-08-06T11:55:31;4.45;;;2.05;;
23266;SDS011;11802;53.160;8.214;2023-08-06T11:57:57;2.58;;;1.73;;
23266;SDS011;11802;53.160;8.214;2023-08-06T12:00:24;3.95;;;1.80;;
23266;SDS011;11802;53.160;8.214;2023-08-06T12:02:50;3.00;;;1.90;;
23266;SDS011;11802;53.160;8.214;2023-08-06T12:05:18;3.55;;;2.22;;
23266;SDS011;11802;53.160;8.214;2023-08-06T12:07:57;3.90;;;1.77;;
23266;SDS011;11802;53.160;8.214;2023-08-06T12:10:24;2.60;;;1.60;;
23266;SDS011;11802;53.160;8.214;2023-08-06T12:12:51;3.30;;;1.50;;
23266;SDS011;11802;53.160;8.214;2023-08-06T12:15:17;2.60;;;1.77;;
23266;SDS011;11802;53.160;8.214;2023-08-06T12:17:43;3.13;;;1.80;;
23266;SDS011;11802;53.160;8.214;2023-08-06T12:20:09;2.35;;;1.83;;
23266;SDS011;11802;53.160;8.214;2023-08-06T12:22:35;2.28;;;1.80;;
23266;SDS011;11802;53.160;8.214;2023-08-06T12:25:02;4.03;;;1.95;;
23266;SDS011;11802;53.160;8.214;2023-08-06T12:27:32;2.85;;;1.63;;
23266;SDS011;11802;53.160;8.214;2023-08-06T12:30:01;3.28;;;1.80;;
23266;SDS011;11802;53.160;8.214;2023-08-06T12:32:28;3.47;;;2.15;;
23266;SDS011;11802;53.160;8.214;2023-08-06T12:34:54;3.55;;;1.92;;
23266;SDS011;11802;53.160;8.214;2023-08-06T12:37:19;3.05;;;2.10;;
23266;SDS011;11802;53.160;8.214;2023-08-06T12:39:45;3.35;;;1.80;;
23266;SDS011;11802;53.160;8.214;2023-08-06T12:42:10;2.97;;;1.88;;
23266;SDS011;11802;53.160;8.214;2023-08-06T12:44:36;3.63;;;1.95;;
23266;SDS011;11802;53.160;8.214;2023-08-06T12:47:01;3.50;;;2.00;;
23266;SDS011;11802;53.160;8.214;2023-08-06T12:49:27;3.60;;;2.35;;
23266;SDS011;11802;53.160;8.214;2023-08-06T12:51:53;3.38;;;1.55;;
23266;SDS011;11802;53.160;8.214;2023-08-06T12:54:20;3.47;;;1.95;;
23266;SDS011;11802;53.160;8.214;2023-08-06T12:56:46;3.08;;;1.90;;
23266;SDS011;11802;53.160;8.214;2023-08-06T12:59:13;3.55;;;1.88;;
23266;SDS011;11802;53.160;8.214;2023-08-06T13:01:40;3.97;;;2.28;;
23266;SDS011;11802;53.160;8.214;2023-08-06T13:04:06;2.40;;;2.03;;
23266;SDS011;11802;53.160;8.214;2023-08-06T13:06:31;3.70;;;2.20;;
23266;SDS011;11802;53.160;8.214;2023-08-06T13:09:02;4.60;;;2.42;;
23266;SDS011;11802;53.160;8.214;2023-08-06T13:11:28;3.63;;;2.28;;
23266;SDS011;11802;53.160;8.214;2023-08-06T13:14:04;2.75;;;1.90;;
23266;SDS011;11802;53.160;8.214;2023-08-06T13:16:34;3.13;;;2.20;;
23266;SDS011;11802;53.160;8.214;2023-08-06T13:19:00;4.95;;;2.20;;
23266;SDS011;11802;53.160;8.214;2023-08-06T13:24:11;3.67;;;2.30;;
23266;SDS011;11802;53.160;8.214;2023-08-06T13:26:36;4.85;;;2.30;;
23266;SDS011;11802;53.160;8.214;2023-08-06T13:29:02;5.53;;;2.30;;
23266;SDS011;11802;53.160;8.214;2023-08-06T13:31:28;5.38;;;2.58;;
23266;SDS011;11802;53.160;8.214;2023-08-06T13:33:56;4.35;;;2.60;;
23266;SDS011;11802;53.160;8.214;2023-08-06T13:36:28;5.90;;;2.13;;
23266;SDS011;11802;53.160;8.214;2023-08-06T13:38:54;3.97;;;2.00;;
23266;SDS011;11802;53.160;8.214;2023-08-06T13:41:21;5.05;;;2.22;;
23266;SDS011;11802;53.160;8.214;2023-08-06T13:43:47;4.68;;;2.30;;
23266;SDS011;11802;53.160;8.214;2023-08-06T13:46:13;4.45;;;2.20;;
23266;SDS011;11802;53.160;8.214;2023-08-06T13:48:41;4.97;;;2.60;;
23266;SDS011;11802;53.160;8.214;2023-08-06T13:51:11;3.97;;;2.75;;
23266;SDS011;11802;53.160;8.214;2023-08-06T13:53:37;5.93;;;2.20;;
23266;SDS011;11802;53.160;8.214;2023-08-06T13:56:04;3.70;;;2.50;;
23266;SDS011;11802;53.160;8.214;2023-08-06T13:58:31;4.60;;;2.70;;
23266;SDS011;11802;53.160;8.214;2023-08-06T14:00:56;4.38;;;2.58;;
23266;SDS011;11802;53.160;8.214;2023-08-06T14:03:22;6.55;;;2.72;;
23266;SDS011;11802;53.160;8.214;2023-08-06T14:05:48;6.05;;;2.75;;
23266;SDS011;11802;53.160;8.214;2023-08-06T14:08:14;5.25;;;2.85;;
23266;SDS011;11802;53.160;8.214;2023-08-06T14:10:43;4.88;;;2.70;;
23266;SDS011;11802;53.160;8.214;2023-08-06T14:13:09;5.32;;;2.80;;
23266;SDS011;11802;53.160;8.214;2023-08-06T14:15:34;4.10;;;2.55;;
23266;SDS011;11802;53.160;8.214;2023-08-06T14:18:00;4.55;;;2.80;;
23266;SDS011;11802;53.160;8.214;2023-08-06T14:20:25;5.18;;;2.50;;
23266;SDS011;11802;53.160;8.214;2023-08-06T14:22:51;4.97;;;2.90;;
23266;SDS011;11802;53.160;8.214;2023-08-06T14:25:16;4.93;;;2.45;;
23266;SDS011;11802;53.160;8.214;2023-08-06T14:27:42;4.50;;;2.88;;
23266;SDS011;11802;53.160;8.214;2023-08-06T14:30:07;5.05;;;2.75;;
23266;SDS011;11802;53.160;8.214;2023-08-06T14:32:33;4.63;;;2.90;;
23266;SDS011;11802;53.160;8.214;2023-08-06T14:34:59;4.35;;;2.60;;
23266;SDS011;11802;53.160;8.214;2023-08-06T14:37:25;4.97;;;2.90;;
23266;SDS011;11802;53.160;8.214;2023-08-06T14:39:51;5.80;;;3.10;;
23266;SDS011;11802;53.160;8.214;2023-08-06T14:42:17;5.15;;;2.72;;
23266;SDS011;11802;53.160;8.214;2023-08-06T14:44:42;5.07;;;3.03;;
23266;SDS011;11802;53.160;8.214;2023-08-06T14:47:08;5.47;;;3.28;;
23266;SDS011;11802;53.160;8.214;2023-08-06T14:49:34;6.15;;;3.00;;
23266;SDS011;11802;53.160;8.214;2023-08-06T14:51:59;7.05;;;3.47;;
23266;SDS011;11802;53.160;8.214;2023-08-06T14:54:26;5.85;;;3.00;;